Time;durP1;ratioP1;P1;durP2;ratioP2;P2;SDS_P1;SDS_P2;PMS_P1;PMS_P2;Temp;Humidity;BMP_temperature;BMP_pressure;BME280_temperature;BME280_humidity;BME280_pressure;Samples;Min_cycle;Max_cycle;Signal;HPM_P1;HPM_P2
2022/10/06 00:00:21;;;;;;;7.68;1.40;;;12.70;99.90;;;;;;5017455;28;20050;-72
2022/10/06 00:02:47;;;;;;;5.28;1.52;;;12.70;99.90;;;;;;5017451;28;20450;-71
2022/10/06 00:05:12;;;;;;;9.88;1.50;;;12.70;99.90;;;;;;5016720;28;20053;-71
2022/10/06 00:07:38;;;;;;;7.57;1.88;;;12.60;99.90;;;;;;5017099;28;20053;-71
2022/10/06 00:10:05;;;;;;;15.52;2.40;;;12.60;99.90;;;;;;5016935;28;20089;-72
2022/10/06 00:12:46;;;;;;;4.88;1.38;;;12.50;99.90;;;;;;5017399;28;20069;-71
2022/10/06 00:15:14;;;;;;;8.25;1.85;;;12.50;99.90;;;;;;5017089;28;20046;-73
2022/10/06 00:17:40;;;;;;;7.47;1.65;;;12.50;99.90;;;;;;5016631;28;20085;-72
2022/10/06 00:20:07;;;;;;;10.05;2.33;;;12.40;99.90;;;;;;5016757;28;20103;-71
2022/10/06 00:22:42;;;;;;;8.27;1.70;;;12.50;99.90;;;;;;5016430;28;20081;-71
2022/10/06 00:25:10;;;;;;;11.70;2.78;;;12.50;99.90;;;;;;5016090;28;20046;-73
2022/10/06 00:27:43;;;;;;;17.83;3.47;;;12.50;99.90;;;;;;5017096;28;20086;-71
2022/10/06 00:30:12;;;;;;;6.75;1.48;;;12.40;99.90;;;;;;5016597;28;20093;-72
2022/10/06 00:32:38;;;;;;;8.65;1.95;;;12.40;99.90;;;;;;5016861;28;20046;-71
2022/10/06 00:35:05;;;;;;;6.93;1.77;;;12.30;99.90;;;;;;5016562;28;20198;-71
2022/10/06 00:37:34;;;;;;;12.75;2.78;;;12.30;99.90;;;;;;5016613;28;20042;-71
2022/10/06 00:40:00;;;;;;;8.40;2.00;;;12.30;99.90;;;;;;5016611;28;20121;-73
2022/10/06 00:42:31;;;;;;;12.77;1.92;;;12.30;99.90;;;;;;4995378;28;20058;-72
2022/10/06 00:45:01;;;;;;;10.10;1.83;;;12.20;99.90;;;;;;4980498;28;20050;-71
2022/10/06 00:47:29;;;;;;;9.52;1.45;;;12.20;99.90;;;;;;4996618;28;20042;-70
2022/10/06 00:49:57;;;;;;;5.75;1.25;;;12.20;99.90;;;;;;4997119;28;20057;-73
2022/10/06 00:52:26;;;;;;;8.10;2.03;;;12.10;99.90;;;;;;4998624;28;20042;-71
2022/10/06 00:54:52;;;;;;;6.47;1.38;;;12.10;99.90;;;;;;5016309;28;20332;-71
2022/10/06 00:57:19;;;;;;;8.43;1.80;;;12.10;99.90;;;;;;5016114;28;20136;-71
2022/10/06 00:59:45;;;;;;;5.85;1.70;;;12.10;99.90;;;;;;5016155;28;20168;-71
2022/10/06 01:02:16;;;;;;;8.05;1.63;;;12.10;99.90;;;;;;5016311;28;20143;-73
2022/10/06 01:04:49;;;;;;;7.70;1.70;;;12.10;99.90;;;;;;5015994;28;20468;-71
2022/10/06 01:07:18;;;;;;;5.95;2.08;;;12.00;99.90;;;;;;5015925;28;20057;-72
2022/10/06 01:09:44;;;;;;;9.73;2.08;;;12.00;99.90;;;;;;5016250;28;20103;-71
2022/10/06 01:12:10;;;;;;;6.25;1.70;;;12.00;99.90;;;;;;5015692;28;20463;-71
2022/10/06 01:14:38;;;;;;;8.98;2.15;;;12.00;99.90;;;;;;5016296;28;20054;-72
2022/10/06 01:17:10;;;;;;;9.00;2.25;;;12.00;99.90;;;;;;5016183;28;20046;-72
2022/10/06 01:20:02;;;;;;;9.25;1.48;;;12.00;99.90;;;;;;4998562;28;20046;-72
2022/10/06 01:22:36;;;;;;;9.05;1.85;;;12.00;99.90;;;;;;5015412;28;20374;-72
2022/10/06 01:25:04;;;;;;;16.50;3.15;;;12.10;99.90;;;;;;5015546;28;20050;-71
2022/10/06 01:27:32;;;;;;;9.30;2.33;;;11.90;99.90;;;;;;5015964;28;20052;-72
2022/10/06 01:29:58;;;;;;;9.00;2.97;;;12.00;99.90;;;;;;5015593;28;20064;-71
2022/10/06 01:32:31;;;;;;;14.73;2.63;;;12.10;99.90;;;;;;5015671;28;20415;-72
2022/10/06 01:34:56;;;;;;;12.25;2.40;;;11.90;99.90;;;;;;5014984;28;20061;-71
2022/10/06 01:37:23;;;;;;;9.65;2.20;;;11.80;99.90;;;;;;5015382;28;20050;-71
2022/10/06 01:39:49;;;;;;;12.73;2.10;;;11.80;99.90;;;;;;5016850;28;20038;-71
2022/10/06 01:42:14;;;;;;;13.27;2.80;;;11.90;99.90;;;;;;5015080;28;20498;-72
2022/10/06 01:44:40;;;;;;;13.68;2.10;;;11.70;99.90;;;;;;5015792;28;20124;-72
2022/10/06 01:47:06;;;;;;;9.73;2.17;;;11.70;99.90;;;;;;5015332;28;20443;-72
2022/10/06 01:49:32;;;;;;;10.85;2.08;;;11.70;99.90;;;;;;5015263;28;20425;-71
2022/10/06 01:51:58;;;;;;;8.98;2.45;;;11.60;99.90;;;;;;5015670;28;20088;-71
2022/10/06 01:54:23;;;;;;;9.63;2.63;;;11.60;99.90;;;;;;5014503;28;20050;-71
2022/10/06 01:56:49;;;;;;;10.70;2.70;;;11.60;99.90;;;;;;5015411;28;20136;-72
2022/10/06 01:59:14;;;;;;;17.20;2.20;;;11.60;99.90;;;;;;5015275;28;20422;-73
2022/10/06 02:01:40;;;;;;;12.98;2.28;;;11.60;99.90;;;;;;4998013;28;20092;-72
2022/10/06 02:04:06;;;;;;;13.13;2.42;;;11.60;99.90;;;;;;5014992;28;20531;-72
2022/10/06 02:06:32;;;;;;;13.52;2.70;;;11.50;99.90;;;;;;5014949;28;20053;-71
2022/10/06 02:08:59;;;;;;;11.10;2.40;;;11.50;99.90;;;;;;5015164;28;20041;-73
2022/10/06 02:11:25;;;;;;;14.45;2.55;;;11.50;99.90;;;;;;5014998;28;20053;-73
2022/10/06 02:13:51;;;;;;;11.80;2.97;;;11.50;99.90;;;;;;5015166;28;20042;-72
2022/10/06 02:16:17;;;;;;;9.57;2.45;;;11.40;99.90;;;;;;5015147;28;20400;-72
2022/10/06 02:18:42;;;;;;;11.57;2.47;;;11.40;99.90;;;;;;5014889;28;20064;-73
2022/10/06 02:21:14;;;;;;;12.07;2.40;;;11.40;99.90;;;;;;5015377;28;20056;-72
2022/10/06 02:23:39;;;;;;;13.10;2.78;;;11.40;99.90;;;;;;5015007;28;20034;-73
2022/10/06 02:26:05;;;;;;;11.68;2.35;;;11.40;99.90;;;;;;5014651;28;20038;-72
2022/10/06 02:28:31;;;;;;;9.55;2.38;;;11.30;99.90;;;;;;5014912;28;20060;-71
2022/10/06 02:31:05;;;;;;;10.80;2.17;;;11.30;99.90;;;;;;4997450;28;20042;-71
2022/10/06 02:33:30;;;;;;;10.05;1.98;;;11.30;99.90;;;;;;5014862;28;20092;-71
2022/10/06 02:35:57;;;;;;;8.07;2.30;;;11.20;99.90;;;;;;5014784;28;20467;-72
2022/10/06 02:38:23;;;;;;;11.20;2.20;;;11.20;99.90;;;;;;5014874;28;20336;-72
2022/10/06 02:40:50;;;;;;;11.50;2.22;;;11.20;99.90;;;;;;5014554;28;20034;-71
2022/10/06 02:43:16;;;;;;;12.18;2.13;;;11.40;99.90;;;;;;5014536;28;20108;-71
2022/10/06 02:45:42;;;;;;;20.27;2.80;;;11.20;99.90;;;;;;5014867;28;20128;-72
2022/10/06 02:48:10;;;;;;;10.43;2.60;;;11.20;99.90;;;;;;4999207;28;20433;-72
2022/10/06 02:50:37;;;;;;;14.68;3.38;;;11.10;99.90;;;;;;5018883;28;20060;-72
2022/10/06 02:53:07;;;;;;;15.02;2.85;;;11.10;99.90;;;;;;5018430;28;20042;-72
2022/10/06 02:55:34;;;;;;;11.23;2.53;;;11.10;99.90;;;;;;5018627;28;20129;-71
2022/10/06 02:58:00;;;;;;;12.30;2.50;;;11.00;99.90;;;;;;5017952;28;20038;-72
2022/10/06 03:00:26;;;;;;;9.32;2.33;;;11.00;99.90;;;;;;5018282;28;20103;-74
2022/10/06 03:02:52;;;;;;;11.65;2.90;;;11.00;99.90;;;;;;5018121;28;20042;-73
2022/10/06 03:05:18;;;;;;;10.73;2.45;;;11.00;99.90;;;;;;5018537;28;20053;-72
2022/10/06 03:07:44;;;;;;;10.90;2.50;;;11.00;99.90;;;;;;5018454;28;20061;-72
2022/10/06 03:10:10;;;;;;;15.90;2.95;;;10.90;99.90;;;;;;5001483;28;20050;-74
2022/10/06 03:12:35;;;;;;;17.50;2.90;;;10.90;99.90;;;;;;5017593;28;20057;-72
2022/10/06 03:15:01;;;;;;;10.88;2.38;;;10.90;99.90;;;;;;5018425;28;20352;-73
2022/10/06 03:17:26;;;;;;;8.93;2.47;;;10.90;99.90;;;;;;5018258;28;20045;-72
2022/10/06 03:19:54;;;;;;;11.32;2.60;;;10.90;99.90;;;;;;5018014;28;20324;-71
2022/10/06 03:22:20;;;;;;;7.93;2.17;;;10.90;99.90;;;;;;5018051;28;20042;-73
2022/10/06 03:24:45;;;;;;;12.65;2.45;;;10.80;99.90;;;;;;5018322;28;20057;-71
2022/10/06 03:27:11;;;;;;;9.15;2.60;;;10.80;99.90;;;;;;5017689;28;20432;-71
2022/10/06 03:29:37;;;;;;;14.90;2.42;;;10.80;99.90;;;;;;5017374;28;20137;-73
2022/10/06 03:32:02;;;;;;;12.18;2.83;;;10.80;99.90;;;;;;5017762;28;20042;-73
2022/10/06 03:34:28;;;;;;;9.80;2.20;;;10.70;99.90;;;;;;5017733;28;20421;-71
2022/10/06 03:36:53;;;;;;;13.18;2.35;;;10.80;99.90;;;;;;5000490;28;20057;-72
2022/10/06 03:39:19;;;;;;;14.30;2.67;;;10.80;99.90;;;;;;5017474;28;20056;-71
2022/10/06 03:41:45;;;;;;;11.27;2.75;;;10.80;99.90;;;;;;5017254;28;20049;-72
2022/10/06 03:44:10;;;;;;;12.05;2.60;;;10.70;99.90;;;;;;5017264;28;20184;-73
2022/10/06 03:46:36;;;;;;;9.57;2.67;;;10.70;99.90;;;;;;5000698;28;20442;-72
2022/10/06 03:49:02;;;;;;;8.98;2.20;;;10.70;99.90;;;;;;5000434;28;20061;-72
2022/10/06 03:51:31;;;;;;;11.00;2.22;;;10.70;99.90;;;;;;5017499;28;20125;-71
2022/10/06 03:53:58;;;;;;;10.68;2.28;;;10.70;99.90;;;;;;5017410;28;20042;-73
2022/10/06 03:56:35;;;;;;;12.35;3.45;;;10.60;99.90;;;;;;5017405;28;20096;-72
2022/10/06 03:59:07;;;;;;;10.73;2.38;;;10.60;99.90;;;;;;5016279;28;20045;-70
2022/10/06 04:01:41;;;;;;;7.40;1.80;;;10.60;99.90;;;;;;5017351;28;20029;-71
2022/10/06 04:04:08;;;;;;;12.38;2.22;;;10.60;99.90;;;;;;5017599;28;20343;-72
2022/10/06 04:06:36;;;;;;;8.50;2.00;;;10.60;99.90;;;;;;5016901;28;20038;-71
2022/10/06 04:09:05;;;;;;;10.65;2.08;;;10.60;99.90;;;;;;5016525;28;20400;-72
2022/10/06 04:11:34;;;;;;;9.07;2.00;;;10.60;99.90;;;;;;5017066;28;20128;-71
2022/10/06 04:14:03;;;;;;;7.40;2.50;;;10.60;99.90;;;;;;5016818;28;20149;-71
2022/10/06 04:16:33;;;;;;;12.45;2.60;;;10.60;99.90;;;;;;5016827;28;20056;-72
2022/10/06 04:19:01;;;;;;;12.85;2.80;;;10.50;99.90;;;;;;5016818;28;20046;-73
2022/10/06 04:21:28;;;;;;;11.32;2.92;;;10.50;99.90;;;;;;5016712;28;20046;-72
2022/10/06 04:23:55;;;;;;;12.95;2.72;;;10.50;99.90;;;;;;5016726;28;20050;-72
2022/10/06 04:26:22;;;;;;;12.15;2.53;;;10.40;99.90;;;;;;5016641;28;20042;-72
2022/10/06 04:28:49;;;;;;;12.18;2.78;;;10.40;99.90;;;;;;5016977;28;20085;-72
2022/10/06 04:31:15;;;;;;;7.47;2.20;;;10.40;99.90;;;;;;5016830;28;20042;-71
2022/10/06 04:33:43;;;;;;;11.90;2.40;;;10.40;99.90;;;;;;4999658;28;20060;-71
2022/10/06 04:36:13;;;;;;;7.80;2.50;;;10.30;99.90;;;;;;5016759;28;20455;-73
2022/10/06 04:38:39;;;;;;;10.60;2.35;;;10.30;99.90;;;;;;5016904;28;20050;-72
2022/10/06 04:41:13;;;;;;;13.63;3.30;;;10.30;99.90;;;;;;5015948;28;20052;-72
2022/10/06 04:43:39;;;;;;;9.55;2.40;;;10.20;99.90;;;;;;5015531;28;20497;-71
2022/10/06 04:46:05;;;;;;;11.27;3.28;;;10.20;99.90;;;;;;5016494;28;20041;-70
2022/10/06 04:48:31;;;;;;;13.32;2.65;;;10.20;99.90;;;;;;4999266;28;20064;-72
2022/10/06 04:51:00;;;;;;;10.50;2.90;;;10.20;99.90;;;;;;5016460;28;20056;-72
2022/10/06 04:53:26;;;;;;;9.70;2.28;;;10.10;99.90;;;;;;5016155;28;20046;-72
2022/10/06 04:56:04;;;;;;;7.18;2.35;;;10.10;99.90;;;;;;5016252;28;20046;-72
2022/10/06 04:58:35;;;;;;;11.60;2.75;;;10.10;99.90;;;;;;4998674;28;20064;-71
2022/10/06 05:01:01;;;;;;;9.02;2.75;;;10.10;99.90;;;;;;5016197;28;20053;-72
2022/10/06 05:03:28;;;;;;;9.20;2.50;;;10.00;99.90;;;;;;5015995;28;20086;-71
2022/10/06 05:06:15;;;;;;;12.35;2.40;;;10.00;99.90;;;;;;5015912;28;20081;-70
2022/10/06 05:08:43;;;;;;;15.48;3.17;;;10.00;99.90;;;;;;5016166;28;20057;-70
2022/10/06 05:11:10;;;;;;;13.45;3.95;;;10.00;99.90;;;;;;4998626;28;20124;-71
2022/10/06 05:13:37;;;;;;;13.23;3.03;;;9.90;99.90;;;;;;5015565;28;20080;-71
2022/10/06 05:16:05;;;;;;;18.83;2.97;;;9.90;99.90;;;;;;5015674;28;20046;-70
2022/10/06 05:18:31;;;;;;;7.25;2.35;;;9.90;99.90;;;;;;5015681;28;20053;-69
2022/10/06 05:20:58;;;;;;;12.27;3.45;;;9.90;99.90;;;;;;5015925;28;20116;-72
2022/10/06 05:23:27;;;;;;;15.07;3.13;;;10.00;99.90;;;;;;5016499;28;20235;-71
2022/10/06 05:25:55;;;;;;;12.20;2.47;;;10.00;99.90;;;;;;5015924;28;20410;-71
2022/10/06 05:28:22;;;;;;;11.05;2.75;;;9.90;99.90;;;;;;5015869;28;20054;-71
2022/10/06 05:30:58;;;;;;;10.18;2.72;;;9.90;99.90;;;;;;5015283;28;20374;-72
2022/10/06 05:33:26;;;;;;;12.77;2.97;;;9.90;99.90;;;;;;4998267;28;20045;-71
2022/10/06 05:35:53;;;;;;;12.50;2.97;;;9.90;99.90;;;;;;5015726;28;20116;-72
2022/10/06 05:38:19;;;;;;;11.52;2.70;;;10.00;99.90;;;;;;5015617;28;20033;-72
2022/10/06 05:40:44;;;;;;;12.48;2.65;;;10.00;99.90;;;;;;5015438;28;20107;-72
2022/10/06 05:43:10;;;;;;;16.08;2.95;;;9.90;99.90;;;;;;5015611;28;20057;-74
2022/10/06 05:45:36;;;;;;;10.60;2.35;;;10.00;99.90;;;;;;5015030;28;20065;-71
2022/10/06 05:48:01;;;;;;;13.23;2.88;;;10.00;99.90;;;;;;4998508;28;20136;-72
2022/10/06 05:50:27;;;;;;;16.27;3.22;;;10.00;99.90;;;;;;4998753;28;20060;-72
2022/10/06 05:52:56;;;;;;;16.50;2.42;;;10.00;99.90;;;;;;5015423;28;20050;-73
2022/10/06 05:55:21;;;;;;;10.25;2.53;;;10.10;99.90;;;;;;5015188;28;20050;-72
2022/10/06 05:57:47;;;;;;;11.48;2.83;;;10.10;99.90;;;;;;4998157;28;20054;-72
2022/10/06 06:00:13;;;;;;;18.40;3.25;;;10.20;99.90;;;;;;4994316;28;20061;-71
2022/10/06 06:02:38;;;;;;;12.18;2.92;;;10.00;99.90;;;;;;4978911;28;20050;-73
2022/10/06 06:05:04;;;;;;;15.90;3.40;;;10.10;99.90;;;;;;4995796;28;20046;-72
2022/10/06 06:07:30;;;;;;;13.90;2.38;;;10.10;99.90;;;;;;4995773;28;20109;-71
2022/10/06 06:09:55;;;;;;;12.55;2.60;;;10.10;99.90;;;;;;4995401;28;20053;-71
2022/10/06 06:12:21;;;;;;;11.32;2.25;;;10.30;99.90;;;;;;4995583;28;20050;-73
2022/10/06 06:17:31;;;;;;;16.10;2.63;;;10.20;99.90;;;;;;4994083;28;20140;-72
2022/10/06 06:19:57;;;;;;;11.88;2.83;;;10.30;99.90;;;;;;4994444;28;20070;-72
2022/10/06 06:22:22;;;;;;;12.10;2.72;;;10.40;99.90;;;;;;4996128;28;20061;-71
2022/10/06 06:24:49;;;;;;;13.05;2.67;;;10.50;99.90;;;;;;4999417;28;20042;-71
2022/10/06 06:27:14;;;;;;;12.40;2.25;;;10.60;99.90;;;;;;4999412;28;20085;-71
2022/10/06 06:29:40;;;;;;;9.55;2.85;;;10.70;99.90;;;;;;4999170;28;20419;-72
2022/10/06 06:32:08;;;;;;;12.35;2.50;;;10.70;99.90;;;;;;5015712;28;20048;-72
2022/10/06 06:34:34;;;;;;;16.27;3.22;;;10.70;99.90;;;;;;5018918;28;20056;-72
2022/10/06 06:37:00;;;;;;;14.80;2.50;;;10.70;99.90;;;;;;5019161;28;20363;-72
2022/10/06 06:39:26;;;;;;;15.15;3.22;;;10.80;99.90;;;;;;5018771;28;20135;-73
2022/10/06 06:41:52;;;;;;;11.80;2.80;;;10.90;99.90;;;;;;5018469;28;20054;-72
2022/10/06 06:44:18;;;;;;;11.88;2.75;;;10.90;99.90;;;;;;5019005;28;20108;-71
2022/10/06 06:46:48;;;;;;;19.15;2.95;;;10.80;99.90;;;;;;5018546;28;20120;-71
2022/10/06 06:49:15;;;;;;;13.75;3.80;;;10.80;99.90;;;;;;5001566;28;20041;-73
2022/10/06 06:51:43;;;;;;;14.77;3.63;;;10.80;99.90;;;;;;5018562;28;20352;-71
2022/10/06 06:54:10;;;;;;;12.02;2.67;;;10.90;99.90;;;;;;5018944;28;20450;-73
2022/10/06 06:56:37;;;;;;;10.63;2.25;;;10.90;99.90;;;;;;5018361;28;20370;-71
2022/10/06 06:59:10;;;;;;;14.20;4.18;;;11.00;99.90;;;;;;5001417;28;20060;-72
2022/10/06 07:01:38;;;;;;;11.50;2.38;;;11.10;99.90;;;;;;5018056;28;20366;-72
2022/10/06 07:04:05;;;;;;;13.43;2.60;;;11.10;99.90;;;;;;5018585;28;20057;-73
2022/10/06 07:06:31;;;;;;;9.35;2.80;;;11.20;99.90;;;;;;5018383;28;20085;-73
2022/10/06 07:08:58;;;;;;;8.30;2.00;;;11.30;99.90;;;;;;5001110;28;20046;-72
2022/10/06 07:11:30;;;;;;;10.57;2.10;;;11.30;99.90;;;;;;5018648;28;20060;-72
2022/10/06 07:13:59;;;;;;;12.30;2.47;;;11.30;99.90;;;;;;5018020;28;20129;-72
2022/10/06 07:27:27;;;;;;;11.38;2.88;;;11.50;99.90;;;;;;5000798;28;20057;-72
2022/10/06 07:29:53;;;;;;;14.30;3.20;;;11.50;99.90;;;;;;4996933;28;20057;-71
2022/10/06 07:32:24;;;;;;;10.18;2.10;;;11.60;99.90;;;;;;4998713;28;20421;-73
2022/10/06 07:34:50;;;;;;;13.43;2.47;;;11.50;99.90;;;;;;4998047;28;20125;-72
2022/10/06 07:37:16;;;;;;;12.27;2.75;;;11.60;99.90;;;;;;4997361;28;20129;-74
2022/10/06 07:39:48;;;;;;;10.75;2.58;;;11.60;99.90;;;;;;4996758;28;20050;-74
2022/10/06 07:42:17;;;;;;;13.15;3.67;;;11.60;99.90;;;;;;5008207;28;20602;-71
2022/10/06 07:47:29;;;;;;;16.42;3.05;;;11.70;99.90;;;;;;5017726;28;20054;-72
2022/10/06 07:49:57;;;;;;;14.35;2.50;;;11.80;99.90;;;;;;5017754;28;20046;-72
2022/10/06 07:52:27;;;;;;;11.57;2.40;;;11.80;99.90;;;;;;5000273;28;20057;-73
2022/10/06 07:54:54;;;;;;;11.93;3.08;;;11.80;99.90;;;;;;4999932;28;20141;-71
2022/10/06 07:57:20;;;;;;;16.00;3.25;;;11.90;99.90;;;;;;5017348;28;20045;-72
2022/10/06 07:59:45;;;;;;;12.63;2.58;;;11.90;99.90;;;;;;5026683;28;20041;-72
2022/10/06 08:02:11;;;;;;;20.42;4.07;;;11.90;99.90;;;;;;5019714;28;20064;-72
2022/10/06 08:04:37;;;;;;;10.48;2.60;;;11.90;99.90;;;;;;5036988;28;20362;-73
2022/10/06 08:07:03;;;;;;;20.23;3.53;;;11.90;99.90;;;;;;5036779;28;20045;-71
2022/10/06 08:09:29;;;;;;;16.15;3.33;;;11.90;99.90;;;;;;5037493;28;20089;-72
2022/10/06 08:11:55;;;;;;;18.38;3.22;;;12.10;99.90;;;;;;5036648;28;20045;-73
2022/10/06 08:14:21;;;;;;;14.55;2.60;;;12.00;99.90;;;;;;5028384;28;20117;-72
2022/10/06 08:16:47;;;;;;;18.55;3.13;;;12.10;99.90;;;;;;5017159;28;20042;-73
2022/10/06 08:19:13;;;;;;;12.52;2.60;;;12.20;99.90;;;;;;5016679;28;20533;-73
2022/10/06 08:21:39;;;;;;;12.90;2.60;;;12.20;99.90;;;;;;5016366;28;20061;-74
2022/10/06 08:24:04;;;;;;;10.38;3.10;;;12.20;99.90;;;;;;4997222;28;20050;-73
2022/10/06 08:26:32;;;;;;;16.30;3.05;;;12.30;99.90;;;;;;4997353;28;20088;-73
2022/10/06 08:29:01;;;;;;;12.63;2.10;;;12.30;99.90;;;;;;4997402;28;20097;-71
2022/10/06 08:31:28;;;;;;;13.98;3.22;;;12.40;99.90;;;;;;4998696;28;20446;-72
2022/10/06 08:33:56;;;;;;;14.35;2.70;;;12.50;99.90;;;;;;5017616;28;20528;-72
2022/10/06 08:36:25;;;;;;;14.65;2.95;;;12.60;99.90;;;;;;4999769;28;20058;-72
2022/10/06 08:38:51;;;;;;;18.10;3.50;;;12.50;99.90;;;;;;5016576;28;20049;-72
2022/10/06 08:41:19;;;;;;;10.32;2.22;;;12.60;99.90;;;;;;5016525;28;20052;-72
2022/10/06 08:44:18;;;;;;;16.95;3.15;;;12.60;99.90;;;;;;5016836;28;20133;-72
2022/10/06 08:47:00;;;;;;;15.13;2.88;;;12.70;99.90;;;;;;5015484;28;20050;-73
2022/10/06 08:49:39;;;;;;;11.52;2.30;;;12.70;99.90;;;;;;5003128;28;20065;-72
2022/10/06 08:52:36;;;;;;;15.18;2.63;;;12.90;99.90;;;;;;5016659;28;20085;-73
2022/10/06 08:55:14;;;;;;;12.60;2.40;;;12.90;99.90;;;;;;5016358;28;20053;-73
2022/10/06 08:57:54;;;;;;;14.93;2.63;;;13.00;99.90;;;;;;5016324;28;20046;-73
2022/10/06 09:00:20;;;;;;;15.93;3.38;;;13.00;99.90;;;;;;5016434;28;20038;-74
2022/10/06 09:02:47;;;;;;;12.85;2.72;;;13.10;99.90;;;;;;5016308;28;20119;-73
2022/10/06 09:05:18;;;;;;;11.93;2.63;;;13.10;99.90;;;;;;5015757;28;20042;-72
2022/10/06 09:08:15;;;;;;;11.65;3.22;;;13.20;99.90;;;;;;4998652;28;20054;-72
2022/10/06 09:11:08;;;;;;;13.25;2.45;;;13.20;99.90;;;;;;4981806;28;20054;-72
2022/10/06 09:13:46;;;;;;;9.80;2.13;;;13.30;99.90;;;;;;5015828;28;20037;-73
2022/10/06 09:16:18;;;;;;;13.90;3.05;;;13.40;99.90;;;;;;4998941;28;20045;-71
2022/10/06 09:18:51;;;;;;;11.70;2.45;;;13.50;99.90;;;;;;5015353;28;20045;-72
2022/10/06 09:21:37;;;;;;;13.18;2.50;;;13.60;99.90;;;;;;5016237;28;20037;-74
2022/10/06 09:24:12;;;;;;;9.20;2.17;;;13.70;99.90;;;;;;4998771;28;20046;-72
2022/10/06 09:26:45;;;;;;;11.32;2.50;;;13.80;99.90;;;;;;5015822;28;20060;-74
2022/10/06 09:29:11;;;;;;;9.07;2.28;;;13.80;99.90;;;;;;5015734;28;20116;-72
2022/10/06 09:31:41;;;;;;;12.18;2.67;;;13.90;99.90;;;;;;5015617;28;20125;-71
2022/10/06 09:34:31;;;;;;;21.40;3.08;;;14.00;99.90;;;;;;4998309;28;20056;-72
2022/10/06 09:37:03;;;;;;;11.95;2.38;;;13.90;99.90;;;;;;4998910;28;20046;-73
2022/10/06 09:39:35;;;;;;;11.60;1.97;;;14.00;99.90;;;;;;5015480;28;20125;-74
2022/10/06 09:42:18;;;;;;;8.65;2.33;;;14.00;99.90;;;;;;5015427;28;20391;-73
2022/10/06 09:44:45;;;;;;;12.15;2.15;;;14.00;99.90;;;;;;5015455;28;20367;-74
2022/10/06 09:47:27;;;;;;;15.68;2.42;;;13.90;99.90;;;;;;5015308;28;20046;-74
2022/10/06 09:50:11;;;;;;;14.32;2.55;;;13.90;99.90;;;;;;5030854;28;20053;-71
2022/10/06 09:52:37;;;;;;;7.53;2.10;;;14.00;99.90;;;;;;5035307;28;20042;-73
2022/10/06 09:55:11;;;;;;;9.85;2.90;;;13.90;99.90;;;;;;5017732;28;20057;-72
2022/10/06 09:57:38;;;;;;;11.25;1.98;;;14.00;99.90;;;;;;5017010;28;20461;-72
2022/10/06 10:00:46;;;;;;;13.02;2.08;;;14.10;99.90;;;;;;5034925;28;20091;-72
2022/10/06 10:03:12;;;;;;;10.15;2.20;;;14.20;99.90;;;;;;5026828;28;20042;-71
2022/10/06 10:05:46;;;;;;;9.52;2.45;;;14.30;99.90;;;;;;5015028;28;20037;-72
2022/10/06 10:08:11;;;;;;;12.45;2.13;;;14.50;99.90;;;;;;5014766;28;20386;-74
2022/10/06 10:10:37;;;;;;;8.10;2.08;;;14.50;99.90;;;;;;5015123;28;20053;-72
2022/10/06 10:13:20;;;;;;;7.88;1.80;;;14.60;99.90;;;;;;5015476;28;20034;-73
2022/10/06 10:15:58;;;;;;;11.73;2.05;;;14.70;99.90;;;;;;5014963;28;20125;-73
2022/10/06 10:18:27;;;;;;;8.35;1.98;;;14.60;99.90;;;;;;5000969;28;20045;-73
2022/10/06 10:21:04;;;;;;;6.65;1.70;;;14.60;99.90;;;;;;5035032;28;20056;-72
2022/10/06 10:23:35;;;;;;;9.82;1.83;;;14.60;99.90;;;;;;5034910;28;20476;-71
2022/10/06 10:26:28;;;;;;;9.45;2.45;;;14.70;99.90;;;;;;5035179;28;20424;-72
2022/10/06 10:29:21;;;;;;;6.95;1.73;;;14.60;99.90;;;;;;5034699;28;20089;-71
2022/10/06 10:31:57;;;;;;;10.07;2.05;;;14.70;99.90;;;;;;5016538;28;20385;-74
2022/10/06 10:34:58;;;;;;;8.88;1.98;;;14.80;99.90;;;;;;4995655;28;20148;-73
2022/10/06 10:37:30;;;;;;;10.35;2.13;;;14.90;99.90;;;;;;4995548;28;20073;-74
2022/10/06 10:40:02;;;;;;;20.52;2.83;;;14.90;99.90;;;;;;4978430;28;20058;-73
2022/10/06 10:42:46;;;;;;;9.18;2.45;;;15.00;99.90;;;;;;4995480;28;20148;-74
2022/10/06 10:45:21;;;;;;;11.52;2.45;;;15.20;99.90;;;;;;4995360;28;20046;-74
2022/10/06 10:47:48;;;;;;;12.70;2.28;;;15.20;99.90;;;;;;5005382;28;20374;-74
2022/10/06 10:50:52;;;;;;;7.07;2.10;;;15.40;99.90;;;;;;5014720;28;20049;-73
2022/10/06 10:53:33;;;;;;;6.97;1.40;;;15.40;99.90;;;;;;5009771;28;20117;-73
2022/10/06 10:56:00;;;;;;;11.52;2.25;;;15.40;99.90;;;;;;4997399;28;20057;-73
2022/10/06 10:58:49;;;;;;;5.82;1.75;;;15.40;99.90;;;;;;4998028;28;20370;-72
2022/10/06 11:01:51;;;;;;;11.00;1.90;;;15.40;99.90;;;;;;5014773;28;20449;-72
2022/10/06 11:04:19;;;;;;;6.75;2.17;;;15.50;99.90;;;;;;5014266;28;20181;-72
2022/10/06 11:07:09;;;;;;;7.40;1.60;;;15.60;99.90;;;;;;4997918;28;20133;-73
2022/10/06 11:09:47;;;;;;;5.13;1.35;;;15.60;99.90;;;;;;5017240;28;20370;-73
2022/10/06 11:12:27;;;;;;;8.13;1.70;;;15.60;99.90;;;;;;4984993;28;20104;-71
2022/10/06 11:14:58;;;;;;;12.43;2.38;;;15.60;99.90;;;;;;5000948;28;20093;-73
2022/10/06 11:17:39;;;;;;;6.72;1.88;;;15.60;99.90;;;;;;5018277;28;20104;-74
2022/10/06 11:20:23;;;;;;;9.73;1.95;;;15.80;99.90;;;;;;5017907;28;20058;-73
2022/10/06 11:22:54;;;;;;;13.00;2.13;;;16.00;99.90;;;;;;5017900;28;20050;-75
2022/10/06 11:25:22;;;;;;;9.55;2.03;;;16.10;99.90;;;;;;5001100;28;20112;-73
2022/10/06 11:28:11;;;;;;;10.50;2.10;;;16.20;99.90;;;;;;5018184;28;20065;-72
2022/10/06 11:30:59;;;;;;;12.63;2.17;;;16.10;99.90;;;;;;5018209;28;20049;-72
2022/10/06 11:33:52;;;;;;;5.35;1.50;;;16.30;99.90;;;;;;5017205;28;20049;-73
2022/10/06 11:36:49;;;;;;;8.43;1.48;;;16.30;99.90;;;;;;5017752;28;20038;-73
2022/10/06 11:39:30;;;;;;;8.77;1.95;;;16.40;99.90;;;;;;5018311;28;20377;-72
2022/10/06 11:42:04;;;;;;;7.30;2.10;;;16.30;99.90;;;;;;5017891;28;20137;-73
2022/10/06 11:44:45;;;;;;;7.15;1.40;;;16.20;99.90;;;;;;5017634;28;20054;-74
2022/10/06 11:47:17;;;;;;;10.05;1.65;;;16.20;99.90;;;;;;5017890;28;20431;-72
2022/10/06 11:49:54;;;;;;;7.60;1.75;;;16.30;99.90;;;;;;5017025;28;20038;-72
2022/10/06 11:52:20;;;;;;;7.95;1.92;;;16.30;99.90;;;;;;5000630;28;20054;-72
2022/10/06 11:54:54;;;;;;;7.93;2.10;;;16.40;99.90;;;;;;5000739;28;20540;-73
2022/10/06 11:57:22;;;;;;;9.35;2.05;;;16.60;99.90;;;;;;5017579;28;20408;-73
2022/10/06 11:59:50;;;;;;;8.65;1.85;;;16.60;99.90;;;;;;4999983;28;20135;-72
2022/10/06 12:02:45;;;;;;;9.70;1.40;;;16.80;99.90;;;;;;5017303;28;20485;-74
2022/10/06 12:05:11;;;;;;;8.35;1.95;;;16.80;99.90;;;;;;4984094;28;20463;-72
2022/10/06 12:07:52;;;;;;;7.18;1.77;;;16.90;99.90;;;;;;4966869;28;20057;-72
2022/10/06 12:10:26;;;;;;;7.38;1.67;;;16.90;99.90;;;;;;5017130;28;20481;-72
2022/10/06 12:12:56;;;;;;;7.20;1.80;;;16.90;99.90;;;;;;5017276;28;20137;-71
2022/10/06 12:15:32;;;;;;;6.88;1.73;;;16.90;99.90;;;;;;5017039;28;20128;-72
2022/10/06 12:18:05;;;;;;;8.77;2.35;;;16.80;99.90;;;;;;5016940;28;20054;-73
2022/10/06 12:20:53;;;;;;;9.00;1.40;;;16.80;99.90;;;;;;5016055;28;20073;-73
2022/10/06 12:23:39;;;;;;;4.78;1.40;;;16.90;99.90;;;;;;5016772;28;20053;-73
2022/10/06 12:26:25;;;;;;;9.30;1.75;;;17.00;99.90;;;;;;5016889;28;20054;-74
2022/10/06 12:28:59;;;;;;;6.80;1.50;;;17.00;99.90;;;;;;5017050;28;20168;-71
2022/10/06 12:31:43;;;;;;;;;;;17.00;99.90;;;;;;5017074;28;20049;-72
2022/10/06 12:34:41;;;;;;;7.32;1.67;;;16.90;99.90;;;;;;5016357;28;20036;-73
2022/10/06 12:37:26;;;;;;;9.38;1.60;;;16.90;99.90;;;;;;4999853;28;20077;-72
2022/10/06 12:40:12;;;;;;;8.02;1.42;;;17.00;99.90;;;;;;5016274;28;20053;-73
2022/10/06 12:42:37;;;;;;;5.55;1.45;;;16.90;99.90;;;;;;4999097;28;20502;-73
2022/10/06 12:45:14;;;;;;;6.95;1.70;;;16.80;99.90;;;;;;5016716;28;20125;-73
2022/10/06 12:47:43;;;;;;;5.43;1.35;;;16.80;99.90;;;;;;5016545;28;20049;-73
2022/10/06 12:50:25;;;;;;;7.35;1.50;;;16.80;99.90;;;;;;5016017;28;20046;-74
2022/10/06 12:53:13;;;;;;;5.10;1.50;;;16.80;99.90;;;;;;4999315;28;20054;-72
2022/10/06 12:55:51;;;;;;;7.82;1.77;;;16.80;99.90;;;;;;4970189;28;20487;-73
2022/10/06 12:58:31;;;;;;;6.13;1.50;;;16.80;99.90;;;;;;5016468;28;20046;-73
2022/10/06 13:01:14;;;;;;;5.80;1.40;;;16.80;99.90;;;;;;4982524;28;20081;-72
2022/10/06 13:03:46;;;;;;;4.30;1.20;;;16.70;99.90;;;;;;5015919;28;20079;-72
2022/10/06 13:06:12;;;;;;;7.03;1.98;;;16.70;99.90;;;;;;4998604;28;20045;-73
2022/10/06 13:08:38;;;;;;;7.40;1.27;;;16.70;99.90;;;;;;5015940;28;20069;-73
2022/10/06 13:11:23;;;;;;;7.25;1.90;;;16.70;99.90;;;;;;5015888;28;20136;-72
2022/10/06 13:13:52;;;;;;;6.45;1.58;;;16.70;99.90;;;;;;5016431;28;20073;-72
2022/10/06 13:16:22;;;;;;;7.45;1.65;;;16.70;99.90;;;;;;5015946;28;20057;-73